sensor_id;sensor_type;location;lat;lon;timestamp;P1;durP1;ratioP1;P2;durP2;ratioP2
26963;SDS011;14521;48.148;-1.656;2022-07-29T00:01:55;3.75;;;0.70;;
26963;SDS011;14521;48.148;-1.656;2022-07-29T00:05:18;3.40;;;0.63;;
26963;SDS011;14521;48.148;-1.656;2022-07-29T00:08:40;1.08;;;0.75;;
26963;SDS011;14521;48.148;-1.656;2022-07-29T00:12:03;4.85;;;0.60;;
26963;SDS011;14521;48.148;-1.656;2022-07-29T00:15:25;2.83;;;0.65;;
26963;SDS011;14521;48.148;-1.656;2022-07-29T00:18:48;1.92;;;0.80;;
26963;SDS011;14521;48.148;-1.656;2022-07-29T00:22:10;2.90;;;0.77;;
26963;SDS011;14521;48.148;-1.656;2022-07-29T00:25:33;3.05;;;0.80;;
26963;SDS011;14521;48.148;-1.656;2022-07-29T00:28:55;4.53;;;0.70;;
26963;SDS011;14521;48.148;-1.656;2022-07-29T00:32:37;3.80;;;0.63;;
26963;SDS011;14521;48.148;-1.656;2022-07-29T00:35:59;1.90;;;0.60;;
26963;SDS011;14521;48.148;-1.656;2022-07-29T00:39:22;4.22;;;0.70;;
26963;SDS011;14521;48.148;-1.656;2022-07-29T00:42:45;2.83;;;0.80;;
26963;SDS011;14521;48.148;-1.656;2022-07-29T00:46:09;1.30;;;0.63;;
26963;SDS011;14521;48.148;-1.656;2022-07-29T00:49:32;7.20;;;0.60;;
26963;SDS011;14521;48.148;-1.656;2022-07-29T00:52:55;1.70;;;0.65;;
26963;SDS011;14521;48.148;-1.656;2022-07-29T00:56:18;3.60;;;0.70;;
26963;SDS011;14521;48.148;-1.656;2022-07-29T00:59:40;2.67;;;0.70;;
26963;SDS011;14521;48.148;-1.656;2022-07-29T01:03:03;1.42;;;0.90;;
26963;SDS011;14521;48.148;-1.656;2022-07-29T01:06:25;2.20;;;0.52;;
26963;SDS011;14521;48.148;-1.656;2022-07-29T01:09:48;1.85;;;0.70;;
26963;SDS011;14521;48.148;-1.656;2022-07-29T01:13:11;1.45;;;0.60;;
26963;SDS011;14521;48.148;-1.656;2022-07-29T01:16:46;1.52;;;0.77;;
26963;SDS011;14521;48.148;-1.656;2022-07-29T01:20:25;2.63;;;0.70;;
26963;SDS011;14521;48.148;-1.656;2022-07-29T01:24:05;3.67;;;1.55;;
26963;SDS011;14521;48.148;-1.656;2022-07-29T01:27:51;1.83;;;0.70;;
26963;SDS011;14521;48.148;-1.656;2022-07-29T01:31:39;1.85;;;0.60;;
26963;SDS011;14521;48.148;-1.656;2022-07-29T01:35:39;3.70;;;0.70;;
26963;SDS011;14521;48.148;-1.656;2022-07-29T01:42:55;2.05;;;0.60;;
26963;SDS011;14521;48.148;-1.656;2022-07-29T01:46:25;1.90;;;1.20;;
26963;SDS011;14521;48.148;-1.656;2022-07-29T01:49:54;4.03;;;0.70;;
26963;SDS011;14521;48.148;-1.656;2022-07-29T01:53:28;1.35;;;0.77;;
26963;SDS011;14521;48.148;-1.656;2022-07-29T01:56:58;2.08;;;0.60;;
26963;SDS011;14521;48.148;-1.656;2022-07-29T02:00:23;2.47;;;0.77;;
26963;SDS011;14521;48.148;-1.656;2022-07-29T02:03:46;1.85;;;0.82;;
26963;SDS011;14521;48.148;-1.656;2022-07-29T02:07:10;1.30;;;0.77;;
26963;SDS011;14521;48.148;-1.656;2022-07-29T02:10:36;2.65;;;0.50;;
26963;SDS011;14521;48.148;-1.656;2022-07-29T02:14:01;5.18;;;0.73;;
26963;SDS011;14521;48.148;-1.656;2022-07-29T02:17:27;6.03;;;1.05;;
26963;SDS011;14521;48.148;-1.656;2022-07-29T02:20:54;1.13;;;0.60;;
26963;SDS011;14521;48.148;-1.656;2022-07-29T02:24:20;1.33;;;0.82;;
26963;SDS011;14521;48.148;-1.656;2022-07-29T02:27:45;2.72;;;1.08;;
26963;SDS011;14521;48.148;-1.656;2022-07-29T02:31:08;1.83;;;0.60;;
26963;SDS011;14521;48.148;-1.656;2022-07-29T02:34:32;2.47;;;0.77;;
26963;SDS011;14521;48.148;-1.656;2022-07-29T02:37:57;2.55;;;0.60;;
26963;SDS011;14521;48.148;-1.656;2022-07-29T02:41:44;2.13;;;0.80;;
26963;SDS011;14521;48.148;-1.656;2022-07-29T02:45:09;2.95;;;0.70;;
26963;SDS011;14521;48.148;-1.656;2022-07-29T02:48:34;1.65;;;0.77;;
26963;SDS011;14521;48.148;-1.656;2022-07-29T02:52:01;2.90;;;0.75;;
26963;SDS011;14521;48.148;-1.656;2022-07-29T02:55:36;4.97;;;0.80;;
26963;SDS011;14521;48.148;-1.656;2022-07-29T02:59:04;2.28;;;0.70;;
26963;SDS011;14521;48.148;-1.656;2022-07-29T03:02:32;3.53;;;1.00;;
26963;SDS011;14521;48.148;-1.656;2022-07-29T03:05:57;1.33;;;0.77;;
26963;SDS011;14521;48.148;-1.656;2022-07-29T03:09:21;0.82;;;0.60;;
26963;SDS011;14521;48.148;-1.656;2022-07-29T03:12:44;2.08;;;0.50;;
26963;SDS011;14521;48.148;-1.656;2022-07-29T03:16:07;3.53;;;0.60;;
26963;SDS011;14521;48.148;-1.656;2022-07-29T03:19:30;3.70;;;0.60;;
26963;SDS011;14521;48.148;-1.656;2022-07-29T03:22:53;2.53;;;0.77;;
26963;SDS011;14521;48.148;-1.656;2022-07-29T03:26:15;1.13;;;0.68;;
26963;SDS011;14521;48.148;-1.656;2022-07-29T03:29:38;3.20;;;0.80;;
26963;SDS011;14521;48.148;-1.656;2022-07-29T03:33:00;2.00;;;0.60;;
26963;SDS011;14521;48.148;-1.656;2022-07-29T03:36:22;1.80;;;0.65;;
26963;SDS011;14521;48.148;-1.656;2022-07-29T03:39:46;1.60;;;0.60;;
26963;SDS011;14521;48.148;-1.656;2022-07-29T03:43:10;1.20;;;0.70;;
26963;SDS011;14521;48.148;-1.656;2022-07-29T03:46:37;3.38;;;1.35;;
26963;SDS011;14521;48.148;-1.656;2022-07-29T03:50:02;4.07;;;0.77;;
26963;SDS011;14521;48.148;-1.656;2022-07-29T03:53:31;2.60;;;0.43;;
26963;SDS011;14521;48.148;-1.656;2022-07-29T03:56:54;0.98;;;0.60;;
26963;SDS011;14521;48.148;-1.656;2022-07-29T04:03:41;2.25;;;0.60;;
26963;SDS011;14521;48.148;-1.656;2022-07-29T04:07:03;2.58;;;0.88;;
26963;SDS011;14521;48.148;-1.656;2022-07-29T04:10:26;0.93;;;0.70;;
26963;SDS011;14521;48.148;-1.656;2022-07-29T04:13:52;3.35;;;0.70;;
26963;SDS011;14521;48.148;-1.656;2022-07-29T04:17:15;1.98;;;0.60;;
26963;SDS011;14521;48.148;-1.656;2022-07-29T04:20:37;1.75;;;0.68;;
26963;SDS011;14521;48.148;-1.656;2022-07-29T04:23:59;2.67;;;0.65;;
26963;SDS011;14521;48.148;-1.656;2022-07-29T04:27:21;3.85;;;0.60;;
26963;SDS011;14521;48.148;-1.656;2022-07-29T04:30:44;3.08;;;0.80;;
26963;SDS011;14521;48.148;-1.656;2022-07-29T04:34:06;3.22;;;0.47;;
26963;SDS011;14521;48.148;-1.656;2022-07-29T04:37:29;0.63;;;0.63;;
26963;SDS011;14521;48.148;-1.656;2022-07-29T04:40:51;1.55;;;1.30;;
26963;SDS011;14521;48.148;-1.656;2022-07-29T04:44:15;1.40;;;0.60;;
26963;SDS011;14521;48.148;-1.656;2022-07-29T04:47:39;3.40;;;0.73;;
26963;SDS011;14521;48.148;-1.656;2022-07-29T04:51:03;0.63;;;0.60;;
26963;SDS011;14521;48.148;-1.656;2022-07-29T04:54:25;0.88;;;0.60;;
26963;SDS011;14521;48.148;-1.656;2022-07-29T04:57:47;2.63;;;0.60;;
26963;SDS011;14521;48.148;-1.656;2022-07-29T05:01:09;1.05;;;0.80;;
26963;SDS011;14521;48.148;-1.656;2022-07-29T05:04:32;2.97;;;0.80;;
26963;SDS011;14521;48.148;-1.656;2022-07-29T05:07:54;0.52;;;0.50;;
26963;SDS011;14521;48.148;-1.656;2022-07-29T05:11:17;1.02;;;0.90;;
26963;SDS011;14521;48.148;-1.656;2022-07-29T05:14:43;2.15;;;0.70;;
26963;SDS011;14521;48.148;-1.656;2022-07-29T05:18:05;1.88;;;0.70;;
26963;SDS011;14521;48.148;-1.656;2022-07-29T05:21:27;2.92;;;0.85;;
26963;SDS011;14521;48.148;-1.656;2022-07-29T05:24:49;3.10;;;0.68;;
26963;SDS011;14521;48.148;-1.656;2022-07-29T05:28:12;1.33;;;0.63;;
26963;SDS011;14521;48.148;-1.656;2022-07-29T05:31:34;1.95;;;0.70;;
26963;SDS011;14521;48.148;-1.656;2022-07-29T05:34:56;2.33;;;0.82;;
26963;SDS011;14521;48.148;-1.656;2022-07-29T05:38:18;2.45;;;0.80;;
26963;SDS011;14521;48.148;-1.656;2022-07-29T05:41:41;0.65;;;0.50;;
26963;SDS011;14521;48.148;-1.656;2022-07-29T05:45:03;3.90;;;0.90;;
26963;SDS011;14521;48.148;-1.656;2022-07-29T05:48:26;2.03;;;0.68;;
26963;SDS011;14521;48.148;-1.656;2022-07-29T05:51:48;1.50;;;0.77;;
26963;SDS011;14521;48.148;-1.656;2022-07-29T05:55:11;3.50;;;0.68;;
26963;SDS011;14521;48.148;-1.656;2022-07-29T05:58:33;2.75;;;0.80;;
26963;SDS011;14521;48.148;-1.656;2022-07-29T06:01:55;5.38;;;0.75;;
26963;SDS011;14521;48.148;-1.656;2022-07-29T06:05:20;1.63;;;1.00;;
26963;SDS011;14521;48.148;-1.656;2022-07-29T06:08:43;2.60;;;0.80;;
26963;SDS011;14521;48.148;-1.656;2022-07-29T06:12:05;6.93;;;0.63;;
26963;SDS011;14521;48.148;-1.656;2022-07-29T06:15:27;1.88;;;0.55;;
26963;SDS011;14521;48.148;-1.656;2022-07-29T06:18:50;3.42;;;0.65;;
26963;SDS011;14521;48.148;-1.656;2022-07-29T06:22:14;1.67;;;0.65;;
26963;SDS011;14521;48.148;-1.656;2022-07-29T06:25:39;3.35;;;0.73;;
26963;SDS011;14521;48.148;-1.656;2022-07-29T06:29:02;5.85;;;0.80;;
26963;SDS011;14521;48.148;-1.656;2022-07-29T06:32:24;8.02;;;1.05;;
26963;SDS011;14521;48.148;-1.656;2022-07-29T06:35:48;2.58;;;0.70;;
26963;SDS011;14521;48.148;-1.656;2022-07-29T06:39:15;7.13;;;0.90;;
26963;SDS011;14521;48.148;-1.656;2022-07-29T06:42:41;1.67;;;0.60;;
26963;SDS011;14521;48.148;-1.656;2022-07-29T06:46:06;1.70;;;0.60;;
26963;SDS011;14521;48.148;-1.656;2022-07-29T06:52:52;11.75;;;2.45;;
26963;SDS011;14521;48.148;-1.656;2022-07-29T06:56:15;3.75;;;0.70;;
26963;SDS011;14521;48.148;-1.656;2022-07-29T06:59:37;4.28;;;0.70;;
26963;SDS011;14521;48.148;-1.656;2022-07-29T07:03:00;3.90;;;0.60;;
26963;SDS011;14521;48.148;-1.656;2022-07-29T07:06:22;4.78;;;0.70;;
26963;SDS011;14521;48.148;-1.656;2022-07-29T07:09:45;2.42;;;0.70;;
26963;SDS011;14521;48.148;-1.656;2022-07-29T07:13:07;3.05;;;0.70;;
26963;SDS011;14521;48.148;-1.656;2022-07-29T07:16:30;5.40;;;0.85;;
26963;SDS011;14521;48.148;-1.656;2022-07-29T07:19:53;3.22;;;0.70;;
26963;SDS011;14521;48.148;-1.656;2022-07-29T07:23:15;2.25;;;0.60;;
26963;SDS011;14521;48.148;-1.656;2022-07-29T07:26:37;3.40;;;0.80;;
26963;SDS011;14521;48.148;-1.656;2022-07-29T07:30:02;3.47;;;0.70;;
26963;SDS011;14521;48.148;-1.656;2022-07-29T07:33:27;1.73;;;0.90;;
26963;SDS011;14521;48.148;-1.656;2022-07-29T07:36:50;2.05;;;0.80;;
26963;SDS011;14521;48.148;-1.656;2022-07-29T07:40:12;3.45;;;0.98;;
26963;SDS011;14521;48.148;-1.656;2022-07-29T07:43:39;3.65;;;0.95;;
26963;SDS011;14521;48.148;-1.656;2022-07-29T07:47:02;5.18;;;0.80;;
26963;SDS011;14521;48.148;-1.656;2022-07-29T07:50:29;2.20;;;0.93;;
26963;SDS011;14521;48.148;-1.656;2022-07-29T07:53:51;4.53;;;0.75;;
26963;SDS011;14521;48.148;-1.656;2022-07-29T07:57:14;4.88;;;0.60;;
26963;SDS011;14521;48.148;-1.656;2022-07-29T08:00:37;2.40;;;0.60;;
26963;SDS011;14521;48.148;-1.656;2022-07-29T08:03:59;2.65;;;0.80;;
26963;SDS011;14521;48.148;-1.656;2022-07-29T08:07:21;2.83;;;0.65;;
26963;SDS011;14521;48.148;-1.656;2022-07-29T08:10:44;2.40;;;0.63;;
26963;SDS011;14521;48.148;-1.656;2022-07-29T08:14:15;0.85;;;0.70;;
26963;SDS011;14521;48.148;-1.656;2022-07-29T08:17:38;4.95;;;0.90;;
26963;SDS011;14521;48.148;-1.656;2022-07-29T08:21:00;4.00;;;0.88;;
26963;SDS011;14521;48.148;-1.656;2022-07-29T08:24:22;9.32;;;0.90;;
26963;SDS011;14521;48.148;-1.656;2022-07-29T08:28:03;1.45;;;0.70;;
26963;SDS011;14521;48.148;-1.656;2022-07-29T08:31:25;2.22;;;0.98;;
26963;SDS011;14521;48.148;-1.656;2022-07-29T08:34:48;1.05;;;0.60;;
26963;SDS011;14521;48.148;-1.656;2022-07-29T08:38:10;1.55;;;0.73;;
26963;SDS011;14521;48.148;-1.656;2022-07-29T08:41:32;2.80;;;0.82;;
26963;SDS011;14521;48.148;-1.656;2022-07-29T08:44:55;2.58;;;0.60;;
26963;SDS011;14521;48.148;-1.656;2022-07-29T08:48:20;4.80;;;0.75;;
26963;SDS011;14521;48.148;-1.656;2022-07-29T08:55:10;1.40;;;0.98;;
26963;SDS011;14521;48.148;-1.656;2022-07-29T08:58:33;6.90;;;0.85;;
26963;SDS011;14521;48.148;-1.656;2022-07-29T09:01:57;6.18;;;0.90;;
26963;SDS011;14521;48.148;-1.656;2022-07-29T09:05:22;6.27;;;0.60;;
26963;SDS011;14521;48.148;-1.656;2022-07-29T09:08:46;2.33;;;0.80;;
26963;SDS011;14521;48.148;-1.656;2022-07-29T09:12:12;3.58;;;0.80;;
26963;SDS011;14521;48.148;-1.656;2022-07-29T09:15:50;4.90;;;0.75;;
26963;SDS011;14521;48.148;-1.656;2022-07-29T09:19:25;2.47;;;0.60;;
26963;SDS011;14521;48.148;-1.656;2022-07-29T09:22:50;2.90;;;0.90;;
26963;SDS011;14521;48.148;-1.656;2022-07-29T09:26:15;13.50;;;0.98;;
26963;SDS011;14521;48.148;-1.656;2022-07-29T09:29:37;4.10;;;0.70;;
26963;SDS011;14521;48.148;-1.656;2022-07-29T09:33:02;3.97;;;0.73;;
26963;SDS011;14521;48.148;-1.656;2022-07-29T09:36:24;2.63;;;0.60;;
26963;SDS011;14521;48.148;-1.656;2022-07-29T09:39:47;4.00;;;0.88;;
26963;SDS011;14521;48.148;-1.656;2022-07-29T09:43:10;5.72;;;0.80;;
26963;SDS011;14521;48.148;-1.656;2022-07-29T09:46:33;2.22;;;0.65;;
26963;SDS011;14521;48.148;-1.656;2022-07-29T09:49:57;3.42;;;1.45;;
26963;SDS011;14521;48.148;-1.656;2022-07-29T10:00:20;5.93;;;0.73;;
26963;SDS011;14521;48.148;-1.656;2022-07-29T10:03:50;3.20;;;0.60;;
26963;SDS011;14521;48.148;-1.656;2022-07-29T10:07:14;7.57;;;0.60;;
26963;SDS011;14521;48.148;-1.656;2022-07-29T10:10:37;3.08;;;0.80;;
26963;SDS011;14521;48.148;-1.656;2022-07-29T10:14:04;3.20;;;0.70;;
26963;SDS011;14521;48.148;-1.656;2022-07-29T10:17:27;2.92;;;0.90;;
26963;SDS011;14521;48.148;-1.656;2022-07-29T10:20:50;2.22;;;1.10;;
26963;SDS011;14521;48.148;-1.656;2022-07-29T10:24:13;0.88;;;0.70;;
26963;SDS011;14521;48.148;-1.656;2022-07-29T10:27:36;6.60;;;1.55;;
26963;SDS011;14521;48.148;-1.656;2022-07-29T10:31:00;3.70;;;0.75;;
26963;SDS011;14521;48.148;-1.656;2022-07-29T10:45:33;8.32;;;0.93;;
26963;SDS011;14521;48.148;-1.656;2022-07-29T10:52:57;1.70;;;0.52;;
26963;SDS011;14521;48.148;-1.656;2022-07-29T10:56:29;9.02;;;0.82;;
26963;SDS011;14521;48.148;-1.656;2022-07-29T11:07:10;3.47;;;0.80;;
26963;SDS011;14521;48.148;-1.656;2022-07-29T11:10:38;4.18;;;0.80;;
26963;SDS011;14521;48.148;-1.656;2022-07-29T11:14:01;10.43;;;0.90;;
26963;SDS011;14521;48.148;-1.656;2022-07-29T11:17:24;7.65;;;1.13;;
26963;SDS011;14521;48.148;-1.656;2022-07-29T11:20:48;2.50;;;0.80;;
26963;SDS011;14521;48.148;-1.656;2022-07-29T11:27:39;9.02;;;1.42;;
26963;SDS011;14521;48.148;-1.656;2022-07-29T11:31:01;5.18;;;2.40;;
26963;SDS011;14521;48.148;-1.656;2022-07-29T11:41:48;145.45;;;51.80;;
26963;SDS011;14521;48.148;-1.656;2022-07-29T11:48:58;94.80;;;33.20;;
26963;SDS011;14521;48.148;-1.656;2022-07-29T11:52:22;90.88;;;31.02;;
26963;SDS011;14521;48.148;-1.656;2022-07-29T11:55:44;91.22;;;33.85;;
26963;SDS011;14521;48.148;-1.656;2022-07-29T11:59:12;68.93;;;27.92;;
26963;SDS011;14521;48.148;-1.656;2022-07-29T12:02:40;40.65;;;14.95;;
26963;SDS011;14521;48.148;-1.656;2022-07-29T12:06:12;47.63;;;18.55;;
26963;SDS011;14521;48.148;-1.656;2022-07-29T12:09:39;24.60;;;9.00;;
26963;SDS011;14521;48.148;-1.656;2022-07-29T12:12:42;42.40;;;14.90;;
26963;SDS011;14521;48.148;-1.656;2022-07-29T12:15:57;37.90;;;13.55;;
26963;SDS011;14521;48.148;-1.656;2022-07-29T12:19:01;14.65;;;5.40;;
26963;SDS011;14521;48.148;-1.656;2022-07-29T12:22:05;19.67;;;7.60;;
26963;SDS011;14521;48.148;-1.656;2022-07-29T12:25:08;29.17;;;11.52;;
26963;SDS011;14521;48.148;-1.656;2022-07-29T12:28:31;26.95;;;11.77;;
26963;SDS011;14521;48.148;-1.656;2022-07-29T12:31:40;78.38;;;27.27;;
26963;SDS011;14521;48.148;-1.656;2022-07-29T12:34:46;82.05;;;30.13;;
26963;SDS011;14521;48.148;-1.656;2022-07-29T12:37:48;74.22;;;28.75;;
26963;SDS011;14521;48.148;-1.656;2022-07-29T12:43:55;60.53;;;23.83;;
26963;SDS011;14521;48.148;-1.656;2022-07-29T12:47:01;52.20;;;21.73;;
26963;SDS011;14521;48.148;-1.656;2022-07-29T12:50:13;55.95;;;21.70;;
26963;SDS011;14521;48.148;-1.656;2022-07-29T12:53:23;41.05;;;16.83;;
26963;SDS011;14521;48.148;-1.656;2022-07-29T12:56:26;39.22;;;17.10;;
26963;SDS011;14521;48.148;-1.656;2022-07-29T12:59:43;38.80;;;16.48;;
26963;SDS011;14521;48.148;-1.656;2022-07-29T13:02:46;46.65;;;18.05;;
26963;SDS011;14521;48.148;-1.656;2022-07-29T13:06:01;42.53;;;17.20;;
26963;SDS011;14521;48.148;-1.656;2022-07-29T13:12:13;36.95;;;15.43;;
26963;SDS011;14521;48.148;-1.656;2022-07-29T13:15:15;35.33;;;15.63;;
26963;SDS011;14521;48.148;-1.656;2022-07-29T13:18:31;38.80;;;15.48;;
26963;SDS011;14521;48.148;-1.656;2022-07-29T13:21:35;38.55;;;15.38;;
26963;SDS011;14521;48.148;-1.656;2022-07-29T13:25:12;32.00;;;13.75;;
26963;SDS011;14521;48.148;-1.656;2022-07-29T13:28:10;38.17;;;14.23;;
26963;SDS011;14521;48.148;-1.656;2022-07-29T13:31:13;35.72;;;13.82;;
26963;SDS011;14521;48.148;-1.656;2022-07-29T13:34:33;44.22;;;14.90;;
26963;SDS011;14521;48.148;-1.656;2022-07-29T13:37:56;32.47;;;12.85;;
26963;SDS011;14521;48.148;-1.656;2022-07-29T13:41:18;26.38;;;11.93;;
26963;SDS011;14521;48.148;-1.656;2022-07-29T13:44:40;30.58;;;12.80;;
26963;SDS011;14521;48.148;-1.656;2022-07-29T13:48:03;32.45;;;13.52;;
26963;SDS011;14521;48.148;-1.656;2022-07-29T13:51:26;26.33;;;11.65;;
26963;SDS011;14521;48.148;-1.656;2022-07-29T13:54:48;25.02;;;12.27;;
26963;SDS011;14521;48.148;-1.656;2022-07-29T13:58:11;24.00;;;10.75;;
26963;SDS011;14521;48.148;-1.656;2022-07-29T14:01:34;27.05;;;12.20;;
26963;SDS011;14521;48.148;-1.656;2022-07-29T14:04:56;18.95;;;10.55;;
26963;SDS011;14521;48.148;-1.656;2022-07-29T14:08:19;20.23;;;10.38;;
26963;SDS011;14521;48.148;-1.656;2022-07-29T14:11:41;16.88;;;9.00;;
26963;SDS011;14521;48.148;-1.656;2022-07-29T14:15:04;19.33;;;10.10;;
26963;SDS011;14521;48.148;-1.656;2022-07-29T14:18:27;21.88;;;10.70;;
26963;SDS011;14521;48.148;-1.656;2022-07-29T14:21:49;26.65;;;10.23;;
26963;SDS011;14521;48.148;-1.656;2022-07-29T14:25:12;22.25;;;10.00;;
26963;SDS011;14521;48.148;-1.656;2022-07-29T14:28:36;25.40;;;9.37;;
26963;SDS011;14521;48.148;-1.656;2022-07-29T14:32:02;20.15;;;8.75;;
26963;SDS011;14521;48.148;-1.656;2022-07-29T14:35:26;21.73;;;9.07;;
26963;SDS011;14521;48.148;-1.656;2022-07-29T14:38:48;17.42;;;7.72;;
26963;SDS011;14521;48.148;-1.656;2022-07-29T14:42:11;17.75;;;8.25;;
26963;SDS011;14521;48.148;-1.656;2022-07-29T14:45:34;16.58;;;7.03;;
26963;SDS011;14521;48.148;-1.656;2022-07-29T14:48:57;17.33;;;6.97;;
26963;SDS011;14521;48.148;-1.656;2022-07-29T14:52:19;15.13;;;7.05;;
26963;SDS011;14521;48.148;-1.656;2022-07-29T14:55:41;16.45;;;7.13;;
26963;SDS011;14521;48.148;-1.656;2022-07-29T14:59:04;18.23;;;7.18;;
26963;SDS011;14521;48.148;-1.656;2022-07-29T15:02:27;13.15;;;6.40;;
26963;SDS011;14521;48.148;-1.656;2022-07-29T15:06:09;15.43;;;6.53;;
26963;SDS011;14521;48.148;-1.656;2022-07-29T15:09:32;14.18;;;6.30;;
26963;SDS011;14521;48.148;-1.656;2022-07-29T15:13:00;11.70;;;6.15;;
26963;SDS011;14521;48.148;-1.656;2022-07-29T15:16:23;22.58;;;6.30;;
26963;SDS011;14521;48.148;-1.656;2022-07-29T15:19:45;10.90;;;5.38;;
26963;SDS011;14521;48.148;-1.656;2022-07-29T15:23:07;11.77;;;6.13;;
26963;SDS011;14521;48.148;-1.656;2022-07-29T15:26:31;14.07;;;4.07;;
26963;SDS011;14521;48.148;-1.656;2022-07-29T15:29:53;11.15;;;3.80;;
26963;SDS011;14521;48.148;-1.656;2022-07-29T15:33:15;10.95;;;4.30;;
26963;SDS011;14521;48.148;-1.656;2022-07-29T15:36:38;7.72;;;3.30;;
26963;SDS011;14521;48.148;-1.656;2022-07-29T15:43:35;10.60;;;5.78;;
26963;SDS011;14521;48.148;-1.656;2022-07-29T15:46:57;5.15;;;2.65;;
26963;SDS011;14521;48.148;-1.656;2022-07-29T15:50:29;9.52;;;3.53;;
26963;SDS011;14521;48.148;-1.656;2022-07-29T15:53:51;9.98;;;4.53;;
26963;SDS011;14521;48.148;-1.656;2022-07-29T15:57:14;5.32;;;4.15;;
26963;SDS011;14521;48.148;-1.656;2022-07-29T16:00:36;10.65;;;4.60;;
26963;SDS011;14521;48.148;-1.656;2022-07-29T16:03:58;11.75;;;4.63;;
26963;SDS011;14521;48.148;-1.656;2022-07-29T16:07:21;5.90;;;3.58;;
26963;SDS011;14521;48.148;-1.656;2022-07-29T16:10:46;7.22;;;2.65;;
26963;SDS011;14521;48.148;-1.656;2022-07-29T16:14:08;5.15;;;3.75;;
26963;SDS011;14521;48.148;-1.656;2022-07-29T16:17:32;6.50;;;3.43;;
26963;SDS011;14521;48.148;-1.656;2022-07-29T16:20:54;6.03;;;2.65;;
26963;SDS011;14521;48.148;-1.656;2022-07-29T16:23:57;7.40;;;1.90;;
26963;SDS011;14521;48.148;-1.656;2022-07-29T16:30:03;4.90;;;2.42;;
26963;SDS011;14521;48.148;-1.656;2022-07-29T16:33:06;5.03;;;3.20;;
26963;SDS011;14521;48.148;-1.656;2022-07-29T16:36:08;10.00;;;3.30;;
26963;SDS011;14521;48.148;-1.656;2022-07-29T16:39:13;4.10;;;2.80;;
26963;SDS011;14521;48.148;-1.656;2022-07-29T16:42:15;6.30;;;2.70;;
26963;SDS011;14521;48.148;-1.656;2022-07-29T16:45:37;3.67;;;2.58;;
26963;SDS011;14521;48.148;-1.656;2022-07-29T16:48:46;3.85;;;2.38;;
26963;SDS011;14521;48.148;-1.656;2022-07-29T16:51:49;4.75;;;3.15;;
26963;SDS011;14521;48.148;-1.656;2022-07-29T16:54:51;4.60;;;2.65;;
26963;SDS011;14521;48.148;-1.656;2022-07-29T16:57:53;5.60;;;2.30;;
26963;SDS011;14521;48.148;-1.656;2022-07-29T17:01:14;7.70;;;2.10;;
26963;SDS011;14521;48.148;-1.656;2022-07-29T17:04:37;4.82;;;2.20;;
26963;SDS011;14521;48.148;-1.656;2022-07-29T17:07:59;4.20;;;2.22;;
26963;SDS011;14521;48.148;-1.656;2022-07-29T17:11:22;3.97;;;1.90;;
26963;SDS011;14521;48.148;-1.656;2022-07-29T17:15:05;4.95;;;2.10;;
26963;SDS011;14521;48.148;-1.656;2022-07-29T17:18:29;5.25;;;1.90;;
26963;SDS011;14521;48.148;-1.656;2022-07-29T17:21:51;5.25;;;1.67;;
26963;SDS011;14521;48.148;-1.656;2022-07-29T17:25:24;4.05;;;2.20;;
26963;SDS011;14521;48.148;-1.656;2022-07-29T17:28:46;3.53;;;2.00;;
26963;SDS011;14521;48.148;-1.656;2022-07-29T17:32:09;2.33;;;1.95;;
26963;SDS011;14521;48.148;-1.656;2022-07-29T17:35:32;2.97;;;1.80;;
26963;SDS011;14521;48.148;-1.656;2022-07-29T17:39:13;5.13;;;2.30;;
26963;SDS011;14521;48.148;-1.656;2022-07-29T17:42:35;2.20;;;1.90;;
26963;SDS011;14521;48.148;-1.656;2022-07-29T17:45:57;4.93;;;1.70;;
26963;SDS011;14521;48.148;-1.656;2022-07-29T17:49:20;8.05;;;1.50;;
26963;SDS011;14521;48.148;-1.656;2022-07-29T17:52:42;4.18;;;1.17;;
26963;SDS011;14521;48.148;-1.656;2022-07-29T17:56:05;3.08;;;1.20;;
26963;SDS011;14521;48.148;-1.656;2022-07-29T17:59:27;3.97;;;1.60;;
26963;SDS011;14521;48.148;-1.656;2022-07-29T18:02:49;8.55;;;1.77;;
26963;SDS011;14521;48.148;-1.656;2022-07-29T18:06:11;15.55;;;1.77;;
26963;SDS011;14521;48.148;-1.656;2022-07-29T18:09:34;2.63;;;1.80;;
26963;SDS011;14521;48.148;-1.656;2022-07-29T18:12:56;2.65;;;0.68;;
26963;SDS011;14521;48.148;-1.656;2022-07-29T18:16:19;9.95;;;1.10;;
26963;SDS011;14521;48.148;-1.656;2022-07-29T18:19:41;5.03;;;0.90;;
26963;SDS011;14521;48.148;-1.656;2022-07-29T18:22:43;5.00;;;1.02;;
26963;SDS011;14521;48.148;-1.656;2022-07-29T18:25:45;3.83;;;1.00;;
26963;SDS011;14521;48.148;-1.656;2022-07-29T18:28:47;2.78;;;1.10;;
26963;SDS011;14521;48.148;-1.656;2022-07-29T18:31:49;8.63;;;1.55;;
26963;SDS011;14521;48.148;-1.656;2022-07-29T18:34:51;7.50;;;4.20;;
26963;SDS011;14521;48.148;-1.656;2022-07-29T18:37:53;3.88;;;1.38;;
26963;SDS011;14521;48.148;-1.656;2022-07-29T18:41:21;1.70;;;1.40;;
26963;SDS011;14521;48.148;-1.656;2022-07-29T18:44:43;3.63;;;1.48;;
26963;SDS011;14521;48.148;-1.656;2022-07-29T18:48:09;3.53;;;1.60;;
26963;SDS011;14521;48.148;-1.656;2022-07-29T18:51:33;4.10;;;1.17;;
26963;SDS011;14521;48.148;-1.656;2022-07-29T18:54:56;2.22;;;1.55;;
26963;SDS011;14521;48.148;-1.656;2022-07-29T18:58:18;3.65;;;1.10;;
26963;SDS011;14521;48.148;-1.656;2022-07-29T19:01:40;4.68;;;1.00;;
26963;SDS011;14521;48.148;-1.656;2022-07-29T19:05:07;2.67;;;1.33;;
26963;SDS011;14521;48.148;-1.656;2022-07-29T19:08:30;7.85;;;0.90;;
26963;SDS011;14521;48.148;-1.656;2022-07-29T19:11:53;4.13;;;0.90;;
26963;SDS011;14521;48.148;-1.656;2022-07-29T19:15:18;2.40;;;0.57;;
26963;SDS011;14521;48.148;-1.656;2022-07-29T19:18:41;32.30;;;8.18;;
26963;SDS011;14521;48.148;-1.656;2022-07-29T19:22:05;5.55;;;1.80;;
26963;SDS011;14521;48.148;-1.656;2022-07-29T19:25:27;3.95;;;1.40;;
26963;SDS011;14521;48.148;-1.656;2022-07-29T19:28:50;7.80;;;1.13;;
26963;SDS011;14521;48.148;-1.656;2022-07-29T19:32:12;2.90;;;0.63;;
26963;SDS011;14521;48.148;-1.656;2022-07-29T19:35:46;1.40;;;0.68;;
26963;SDS011;14521;48.148;-1.656;2022-07-29T19:39:15;2.70;;;0.90;;
26963;SDS011;14521;48.148;-1.656;2022-07-29T19:42:37;5.63;;;0.95;;
26963;SDS011;14521;48.148;-1.656;2022-07-29T19:45:59;5.47;;;0.90;;
26963;SDS011;14521;48.148;-1.656;2022-07-29T19:49:22;5.30;;;1.13;;
26963;SDS011;14521;48.148;-1.656;2022-07-29T19:52:45;7.25;;;0.88;;
26963;SDS011;14521;48.148;-1.656;2022-07-29T19:56:07;1.42;;;0.68;;
26963;SDS011;14521;48.148;-1.656;2022-07-29T19:59:30;1.83;;;0.80;;
26963;SDS011;14521;48.148;-1.656;2022-07-29T20:02:52;6.40;;;1.58;;
26963;SDS011;14521;48.148;-1.656;2022-07-29T20:06:15;5.40;;;1.10;;
26963;SDS011;14521;48.148;-1.656;2022-07-29T20:09:38;7.05;;;0.80;;
26963;SDS011;14521;48.148;-1.656;2022-07-29T20:13:01;7.78;;;0.70;;
26963;SDS011;14521;48.148;-1.656;2022-07-29T20:16:23;3.53;;;0.75;;
26963;SDS011;14521;48.148;-1.656;2022-07-29T20:19:46;5.70;;;0.90;;
26963;SDS011;14521;48.148;-1.656;2022-07-29T20:23:10;5.28;;;1.00;;
26963;SDS011;14521;48.148;-1.656;2022-07-29T20:26:32;2.63;;;0.85;;
26963;SDS011;14521;48.148;-1.656;2022-07-29T20:29:54;3.72;;;0.88;;
26963;SDS011;14521;48.148;-1.656;2022-07-29T20:33:16;2.05;;;0.77;;
26963;SDS011;14521;48.148;-1.656;2022-07-29T20:36:39;4.93;;;0.90;;
26963;SDS011;14521;48.148;-1.656;2022-07-29T20:40:02;4.70;;;0.95;;
26963;SDS011;14521;48.148;-1.656;2022-07-29T20:43:25;1.77;;;0.80;;
26963;SDS011;14521;48.148;-1.656;2022-07-29T20:46:47;2.58;;;0.68;;
26963;SDS011;14521;48.148;-1.656;2022-07-29T20:50:10;5.63;;;0.60;;
26963;SDS011;14521;48.148;-1.656;2022-07-29T20:53:32;4.30;;;0.73;;
26963;SDS011;14521;48.148;-1.656;2022-07-29T20:56:54;0.95;;;0.55;;
26963;SDS011;14521;48.148;-1.656;2022-07-29T21:00:17;4.15;;;0.77;;
26963;SDS011;14521;48.148;-1.656;2022-07-29T21:03:39;3.60;;;0.60;;
26963;SDS011;14521;48.148;-1.656;2022-07-29T21:07:02;2.85;;;0.70;;